Hlavní strana
METAR-TAF:

METAR-TAF

Letiště :

Chariton Municipal Airport

Chariton, Iowa, Spojené státy americké

zeměpisná šířka: 41-02N, zeměpisná délka: 093-22W, výška: 320 m

Aktuální stav počasí

Zpráva byla vytvořena před 9 minutami, v 09:15 UTC
Severoseverovýchodní vítr 12 kt
Teplota 1°C
Vlhkost vzduchu 93%
Tlak 1011 hPa
Viditelnost: 16.1 km
Oblačno až skoro zataženo ve výšce 10000 ft
Oblačno až skoro zataženo ve výšce 12000 ft

METAR: KCNC 240915Z AUTO 02012KT 10SM BKN100 BKN120 01/00 A2986 RMK AO2

Čas: 03:24 (09:24 UTC)


TAF: chybějící

Stav a předpovědi počasí z více než 4 000 letišť (zprávy METAR a TAF).

Červené a žluté tečky na mapě představují dostupné meteorologické stanice.

Když kurzor umístíte na tečku, zobrazí se název stanice.

Pak kliknutím zobrazíte stav a předpověď počasí.

Chcete-li změnit mapu, kliknutím na zelené tlačítko se znaménkem +mapu přiblížíte, kliknutím na zelené tlačítko se znaménkem – mapu oddálíte a kliknutím na zelené šipky přejdete na sousední mapy.


METAR-TAF: